»·PEaware :: N85RS KTOA-KOXR

N85RS :: KTOA-KOXR

FLIGHT INFORMATION

Flight Status: Arrived
Operator: Privately registered:
United States
More flights under this callsign
Pilot: Ryan S. (18139)
Aircraft: Unknown
(PIPA)
More flights by this aircraft type
Origin: KTOA Zamperini
United States
Destination: KOXR Oxnard
United States
More flights between these airports :: More routes between these airports
Route: +
File this flight plan on PilotEdge
Remarks:
Altitude:
(Current/Filed)
1,500ft
Speed:
(Current/Filed)
0kts
Departed: 13-Mar-18 08:43 PM
Arrived: 13-Mar-18 09:25 PM
Distance/Time
Traveled:
49nm/0:41
Distance/Time
To Go:
Arrived

Flight Plot

Page will automatically refresh every two minutes.


Map Options




Map Legend


Flown Route
Filed Route
Departure Airport
Arrival Airport
Navaid (VOR, NDB)
Fix

Horizontal Profiles

Position Reports

Time Latitude Longitude Heading Altitude Ground
Speed
13-Mar-18 20:33 33.803557 -118.343866 32 106ft 0kts
13-Mar-18 20:34 33.803598 -118.343835 31 106ft 0kts
13-Mar-18 20:35 33.803598 -118.343835 31 106ft 0kts
13-Mar-18 20:36 33.802736 -118.342656 97 106ft 17kts
13-Mar-18 20:37 33.800838 -118.338740 129 106ft 14kts
13-Mar-18 20:38 33.798295 -118.334905 128 106ft 13kts
13-Mar-18 20:39 33.799072 -118.333322 39 106ft 0kts
13-Mar-18 20:40 33.799072 -118.333322 39 106ft 0kts
13-Mar-18 20:41 33.799089 -118.333306 37 106ft 3kts
13-Mar-18 20:42 33.807142 -118.344223 303 507ft 103kts
13-Mar-18 20:43 33.817002 -118.335506 132 1384ft 136kts
13-Mar-18 20:44 33.803547 -118.301536 128 2330ft 101kts
13-Mar-18 20:45 33.820427 -118.312120 326 2327ft 96kts
13-Mar-18 20:46 33.839284 -118.334604 281 2354ft 90kts
13-Mar-18 20:47 33.857699 -118.352465 343 2682ft 100kts
13-Mar-18 20:48 33.876577 -118.373767 316 3390ft 116kts
13-Mar-18 20:49 33.867311 -118.368233 128 4312ft 107kts
13-Mar-18 20:50 33.845385 -118.350367 151 4127ft 103kts
13-Mar-18 20:51 33.818503 -118.330195 145 3751ft 91kts
13-Mar-18 20:52 33.797684 -118.311963 142 3463ft 106kts
13-Mar-18 20:53 33.772976 -118.287752 139 3459ft 126kts
13-Mar-18 20:54 33.759325 -118.255717 12 4161ft 124kts
13-Mar-18 20:55 33.750827 -118.281671 194 5736ft 118kts
13-Mar-18 20:56 33.717691 -118.268385 168 6098ft 172kts
13-Mar-18 20:57 33.662938 -118.255072 170 5632ft 168kts
13-Mar-18 20:58 33.620125 -118.245679 158 6453ft 171kts
13-Mar-18 20:59 33.614976 -118.205529 14 6442ft 162kts
13-Mar-18 21:00 33.648432 -118.205863 358 6454ft 106kts
13-Mar-18 21:01 33.679276 -118.206837 358 6400ft 114kts
13-Mar-18 21:02 33.711041 -118.207713 359 6399ft 115kts
13-Mar-18 21:03 33.744031 -118.226255 318 6408ft 171kts
13-Mar-18 21:04 33.782383 -118.267783 318 6400ft 194kts
13-Mar-18 21:05 33.823110 -118.311836 318 6399ft 199kts
13-Mar-18 21:06 33.864243 -118.356335 318 6399ft 200kts
13-Mar-18 21:07 33.905554 -118.401054 318 6399ft 202kts
13-Mar-18 21:08 33.948214 -118.443692 340 6399ft 199kts
13-Mar-18 21:09 34.000529 -118.464457 340 6396ft 198kts
13-Mar-18 21:10 34.051458 -118.489015 338 6399ft 198kts
13-Mar-18 21:11 34.102531 -118.513814 338 6399ft 198kts
13-Mar-18 21:12 34.149813 -118.544090 293 6383ft 198kts
13-Mar-18 21:13 34.150628 -118.610317 271 6399ft 198kts
13-Mar-18 21:14 34.153191 -118.675390 273 6417ft 197kts
13-Mar-18 21:15 34.157724 -118.741308 275 6426ft 198kts
13-Mar-18 21:16 34.163254 -118.807496 276 6426ft 198kts
13-Mar-18 21:17 34.169241 -118.873523 276 6426ft 198kts
13-Mar-18 21:18 34.175449 -118.939587 276 6426ft 198kts
13-Mar-18 21:19 34.181673 -119.004911 276 6339ft 186kts
13-Mar-18 21:20 34.187608 -119.066998 276 5943ft 185kts
13-Mar-18 21:21 34.194948 -119.124534 281 4205ft 155kts
13-Mar-18 21:22 34.202527 -119.157934 260 1865ft 91kts
13-Mar-18 21:23 34.200735 -119.188594 266 311ft 74kts
13-Mar-18 21:24 34.200785 -119.205083 273 45ft 32kts
13-Mar-18 21:25 34.200042 -119.206993 136 45ft 0kts
13-Mar-18 21:26 34.199315 -119.204869 85 45ft 0kts
13-Mar-18 21:27 34.199315 -119.204868 84 45ft 0kts
13-Mar-18 21:28 34.199315 -119.204868 84 45ft 0kts
13-Mar-18 21:29 34.199315 -119.204868 84 45ft 0kts

Navigation Log

Ident Type
1. KTOA Airport
2. KOXR Airport